sensor_id;sensor_type;location;lat;lon;timestamp;temperature;humidity
54429;DHT22;40337;52.978;6.310;2022-09-09T00:02:01;14.30;99.90
54429;DHT22;40337;52.978;6.310;2022-09-09T00:04:32;14.30;99.90
54429;DHT22;40337;52.978;6.310;2022-09-09T00:09:49;14.30;99.90
54429;DHT22;40337;52.978;6.310;2022-09-09T00:12:32;14.20;99.90
54429;DHT22;40337;52.978;6.310;2022-09-09T00:15:13;14.20;99.90
54429;DHT22;40337;52.978;6.310;2022-09-09T00:17:53;14.20;99.90
54429;DHT22;40337;52.978;6.310;2022-09-09T00:20:29;14.30;99.90
54429;DHT22;40337;52.978;6.310;2022-09-09T00:23:11;14.30;99.90
54429;DHT22;40337;52.978;6.310;2022-09-09T00:25:49;14.30;99.90
54429;DHT22;40337;52.978;6.310;2022-09-09T00:28:20;14.30;99.90
54429;DHT22;40337;52.978;6.310;2022-09-09T00:30:48;14.30;99.90
54429;DHT22;40337;52.978;6.310;2022-09-09T00:33:16;14.30;99.90
54429;DHT22;40337;52.978;6.310;2022-09-09T00:35:57;14.30;99.90
54429;DHT22;40337;52.978;6.310;2022-09-09T00:38:35;14.30;99.90
54429;DHT22;40337;52.978;6.310;2022-09-09T00:41:11;14.30;99.90
54429;DHT22;40337;52.978;6.310;2022-09-09T00:43:40;14.30;99.90
54429;DHT22;40337;52.978;6.310;2022-09-09T00:55:28;14.20;99.90
54429;DHT22;40337;52.978;6.310;2022-09-09T00:57:29;14.30;99.90
54429;DHT22;40337;52.978;6.310;2022-09-09T01:17:03;14.20;99.90
54429;DHT22;40337;52.978;6.310;2022-09-09T01:25:05;14.10;99.90
54429;DHT22;40337;52.978;6.310;2022-09-09T01:27:36;14.20;99.90
54429;DHT22;40337;52.978;6.310;2022-09-09T01:30:11;14.10;99.90
54429;DHT22;40337;52.978;6.310;2022-09-09T01:35:26;14.20;99.90
54429;DHT22;40337;52.978;6.310;2022-09-09T01:37:58;14.20;99.90
54429;DHT22;40337;52.978;6.310;2022-09-09T01:40:24;14.20;99.90
54429;DHT22;40337;52.978;6.310;2022-09-09T01:42:51;14.20;99.90
54429;DHT22;40337;52.978;6.310;2022-09-09T01:45:17;14.20;99.90
54429;DHT22;40337;52.978;6.310;2022-09-09T01:47:43;14.20;99.90
54429;DHT22;40337;52.978;6.310;2022-09-09T01:50:13;14.20;99.90
54429;DHT22;40337;52.978;6.310;2022-09-09T01:52:40;14.20;99.90
54429;DHT22;40337;52.978;6.310;2022-09-09T01:55:07;14.20;99.90
54429;DHT22;40337;52.978;6.310;2022-09-09T01:57:50;14.20;99.90
54429;DHT22;40337;52.978;6.310;2022-09-09T02:00:17;14.30;99.90
54429;DHT22;40337;52.978;6.310;2022-09-09T02:03:07;14.20;99.90
54429;DHT22;40337;52.978;6.310;2022-09-09T02:05:44;14.30;99.90
54429;DHT22;40337;52.978;6.310;2022-09-09T02:08:20;14.30;99.90
54429;DHT22;40337;52.978;6.310;2022-09-09T02:10:56;14.30;99.90
54429;DHT22;40337;52.978;6.310;2022-09-09T02:13:25;14.30;99.90
54429;DHT22;40337;52.978;6.310;2022-09-09T02:16:10;14.30;99.90
54429;DHT22;40337;52.978;6.310;2022-09-09T02:18:48;14.40;99.90
54429;DHT22;40337;52.978;6.310;2022-09-09T02:21:16;14.40;99.90
54429;DHT22;40337;52.978;6.310;2022-09-09T02:23:43;14.40;99.90
54429;DHT22;40337;52.978;6.310;2022-09-09T02:26:12;14.40;99.90
54429;DHT22;40337;52.978;6.310;2022-09-09T02:28:40;14.50;99.90
54429;DHT22;40337;52.978;6.310;2022-09-09T02:31:07;14.50;99.90
54429;DHT22;40337;52.978;6.310;2022-09-09T02:33:40;14.50;99.90
54429;DHT22;40337;52.978;6.310;2022-09-09T02:36:08;14.50;99.90
54429;DHT22;40337;52.978;6.310;2022-09-09T02:38:38;14.60;99.90
54429;DHT22;40337;52.978;6.310;2022-09-09T02:41:06;14.60;99.90
54429;DHT22;40337;52.978;6.310;2022-09-09T02:43:33;14.60;99.90
54429;DHT22;40337;52.978;6.310;2022-09-09T02:49:00;14.60;99.90
54429;DHT22;40337;52.978;6.310;2022-09-09T02:56:47;14.50;99.90
54429;DHT22;40337;52.978;6.310;2022-09-09T02:59:15;14.60;99.90
54429;DHT22;40337;52.978;6.310;2022-09-09T03:01:41;14.60;99.90
54429;DHT22;40337;52.978;6.310;2022-09-09T03:04:07;14.60;99.90
54429;DHT22;40337;52.978;6.310;2022-09-09T03:06:32;14.60;99.90
54429;DHT22;40337;52.978;6.310;2022-09-09T03:08:58;14.60;99.90
54429;DHT22;40337;52.978;6.310;2022-09-09T03:11:26;14.60;99.90
54429;DHT22;40337;52.978;6.310;2022-09-09T03:13:53;14.60;99.90
54429;DHT22;40337;52.978;6.310;2022-09-09T03:16:20;14.60;99.90
54429;DHT22;40337;52.978;6.310;2022-09-09T03:18:46;14.60;99.90
54429;DHT22;40337;52.978;6.310;2022-09-09T03:21:12;14.60;99.90
54429;DHT22;40337;52.978;6.310;2022-09-09T03:23:37;14.60;99.90
54429;DHT22;40337;52.978;6.310;2022-09-09T03:26:03;14.60;99.90
54429;DHT22;40337;52.978;6.310;2022-09-09T03:28:29;14.60;99.90
54429;DHT22;40337;52.978;6.310;2022-09-09T03:31:04;14.60;99.90
54429;DHT22;40337;52.978;6.310;2022-09-09T03:33:30;14.60;99.90
54429;DHT22;40337;52.978;6.310;2022-09-09T03:35:56;14.60;99.90
54429;DHT22;40337;52.978;6.310;2022-09-09T03:38:23;14.60;99.90
54429;DHT22;40337;52.978;6.310;2022-09-09T03:40:53;14.60;99.90
54429;DHT22;40337;52.978;6.310;2022-09-09T03:43:27;14.60;99.90
54429;DHT22;40337;52.978;6.310;2022-09-09T03:45:53;14.60;99.90
54429;DHT22;40337;52.978;6.310;2022-09-09T03:48:22;14.60;99.90
54429;DHT22;40337;52.978;6.310;2022-09-09T03:50:52;14.60;99.90
54429;DHT22;40337;52.978;6.310;2022-09-09T03:53:21;14.60;99.90
54429;DHT22;40337;52.978;6.310;2022-09-09T03:55:49;14.60;99.90
54429;DHT22;40337;52.978;6.310;2022-09-09T03:58:16;14.60;99.90
54429;DHT22;40337;52.978;6.310;2022-09-09T04:01:11;14.60;99.90
54429;DHT22;40337;52.978;6.310;2022-09-09T04:03:39;14.60;99.90
54429;DHT22;40337;52.978;6.310;2022-09-09T04:06:05;14.60;99.90
54429;DHT22;40337;52.978;6.310;2022-09-09T04:08:33;14.60;99.90
54429;DHT22;40337;52.978;6.310;2022-09-09T04:11:00;14.60;99.90
54429;DHT22;40337;52.978;6.310;2022-09-09T04:13:30;14.60;99.90
54429;DHT22;40337;52.978;6.310;2022-09-09T04:15:59;14.60;99.90
54429;DHT22;40337;52.978;6.310;2022-09-09T04:18:25;14.60;99.90
54429;DHT22;40337;52.978;6.310;2022-09-09T04:20:52;14.50;99.90
54429;DHT22;40337;52.978;6.310;2022-09-09T04:23:18;14.60;99.90
54429;DHT22;40337;52.978;6.310;2022-09-09T04:25:50;14.60;99.90
54429;DHT22;40337;52.978;6.310;2022-09-09T04:28:17;14.60;99.90
54429;DHT22;40337;52.978;6.310;2022-09-09T04:30:44;14.60;99.90
54429;DHT22;40337;52.978;6.310;2022-09-09T04:33:11;14.60;99.90
54429;DHT22;40337;52.978;6.310;2022-09-09T04:35:39;14.60;99.90
54429;DHT22;40337;52.978;6.310;2022-09-09T04:38:05;14.60;99.90
54429;DHT22;40337;52.978;6.310;2022-09-09T04:40:34;14.50;99.90
54429;DHT22;40337;52.978;6.310;2022-09-09T04:43:01;14.60;99.90
54429;DHT22;40337;52.978;6.310;2022-09-09T04:45:28;14.50;99.90
54429;DHT22;40337;52.978;6.310;2022-09-09T04:47:53;14.50;99.90
54429;DHT22;40337;52.978;6.310;2022-09-09T04:50:20;14.60;99.90
54429;DHT22;40337;52.978;6.310;2022-09-09T04:52:45;14.50;99.90
54429;DHT22;40337;52.978;6.310;2022-09-09T04:55:11;14.50;99.90
54429;DHT22;40337;52.978;6.310;2022-09-09T04:57:38;14.50;99.90
54429;DHT22;40337;52.978;6.310;2022-09-09T05:00:04;14.50;99.90
54429;DHT22;40337;52.978;6.310;2022-09-09T05:02:30;14.50;99.90
54429;DHT22;40337;52.978;6.310;2022-09-09T05:04:57;14.50;99.90
54429;DHT22;40337;52.978;6.310;2022-09-09T05:07:23;14.50;99.90
54429;DHT22;40337;52.978;6.310;2022-09-09T05:09:49;14.50;99.90
54429;DHT22;40337;52.978;6.310;2022-09-09T05:12:15;14.50;99.90
54429;DHT22;40337;52.978;6.310;2022-09-09T05:14:42;14.50;99.90
54429;DHT22;40337;52.978;6.310;2022-09-09T05:17:08;14.50;99.90
54429;DHT22;40337;52.978;6.310;2022-09-09T05:19:34;14.50;99.90
54429;DHT22;40337;52.978;6.310;2022-09-09T05:21:59;14.50;99.90
54429;DHT22;40337;52.978;6.310;2022-09-09T05:24:26;14.50;99.90
54429;DHT22;40337;52.978;6.310;2022-09-09T05:26:52;14.40;99.90
54429;DHT22;40337;52.978;6.310;2022-09-09T05:29:17;14.50;99.90
54429;DHT22;40337;52.978;6.310;2022-09-09T05:31:45;14.40;99.90
54429;DHT22;40337;52.978;6.310;2022-09-09T05:34:11;14.50;99.90
54429;DHT22;40337;52.978;6.310;2022-09-09T05:36:37;14.50;99.90
54429;DHT22;40337;52.978;6.310;2022-09-09T05:39:03;14.50;99.90
54429;DHT22;40337;52.978;6.310;2022-09-09T05:41:28;14.50;99.90
54429;DHT22;40337;52.978;6.310;2022-09-09T05:43:54;14.50;99.90
54429;DHT22;40337;52.978;6.310;2022-09-09T05:46:22;14.50;99.90
54429;DHT22;40337;52.978;6.310;2022-09-09T05:48:50;14.50;99.90
54429;DHT22;40337;52.978;6.310;2022-09-09T05:51:19;14.50;99.90
54429;DHT22;40337;52.978;6.310;2022-09-09T05:53:47;14.60;99.90
54429;DHT22;40337;52.978;6.310;2022-09-09T05:56:31;14.60;99.90
54429;DHT22;40337;52.978;6.310;2022-09-09T05:58:57;14.60;99.90
54429;DHT22;40337;52.978;6.310;2022-09-09T06:01:27;14.50;99.90
54429;DHT22;40337;52.978;6.310;2022-09-09T06:03:54;14.60;99.90
54429;DHT22;40337;52.978;6.310;2022-09-09T06:06:22;14.60;99.90
54429;DHT22;40337;52.978;6.310;2022-09-09T06:08:50;14.60;99.90
54429;DHT22;40337;52.978;6.310;2022-09-09T06:11:22;14.70;99.90
54429;DHT22;40337;52.978;6.310;2022-09-09T06:13:48;14.70;99.90
54429;DHT22;40337;52.978;6.310;2022-09-09T06:16:18;14.70;99.90
54429;DHT22;40337;52.978;6.310;2022-09-09T06:18:44;14.80;99.90
54429;DHT22;40337;52.978;6.310;2022-09-09T06:21:21;14.80;99.90
54429;DHT22;40337;52.978;6.310;2022-09-09T06:23:47;14.80;99.90
54429;DHT22;40337;52.978;6.310;2022-09-09T06:26:15;14.90;99.90
54429;DHT22;40337;52.978;6.310;2022-09-09T06:28:44;14.90;99.90
54429;DHT22;40337;52.978;6.310;2022-09-09T06:31:12;14.90;99.90
54429;DHT22;40337;52.978;6.310;2022-09-09T06:33:40;14.90;99.90
54429;DHT22;40337;52.978;6.310;2022-09-09T06:36:30;14.90;99.90
54429;DHT22;40337;52.978;6.310;2022-09-09T06:38:56;14.90;99.90
54429;DHT22;40337;52.978;6.310;2022-09-09T06:41:24;14.90;99.90
54429;DHT22;40337;52.978;6.310;2022-09-09T06:43:51;14.90;99.90
54429;DHT22;40337;52.978;6.310;2022-09-09T06:46:22;15.00;99.90
54429;DHT22;40337;52.978;6.310;2022-09-09T06:48:48;15.00;99.90
54429;DHT22;40337;52.978;6.310;2022-09-09T06:51:19;15.10;99.90
54429;DHT22;40337;52.978;6.310;2022-09-09T06:53:47;15.20;99.90
54429;DHT22;40337;52.978;6.310;2022-09-09T06:58:44;15.30;99.90
54429;DHT22;40337;52.978;6.310;2022-09-09T07:01:22;15.40;99.90
54429;DHT22;40337;52.978;6.310;2022-09-09T07:03:50;15.40;99.90
54429;DHT22;40337;52.978;6.310;2022-09-09T07:06:24;15.40;99.90
54429;DHT22;40337;52.978;6.310;2022-09-09T07:08:55;15.50;99.90
54429;DHT22;40337;52.978;6.310;2022-09-09T07:11:22;15.50;99.90
54429;DHT22;40337;52.978;6.310;2022-09-09T07:13:48;15.50;99.90
54429;DHT22;40337;52.978;6.310;2022-09-09T07:16:16;15.60;99.90
54429;DHT22;40337;52.978;6.310;2022-09-09T07:18:42;15.60;99.90
54429;DHT22;40337;52.978;6.310;2022-09-09T07:21:10;15.60;99.90
54429;DHT22;40337;52.978;6.310;2022-09-09T07:23:37;15.60;99.90
54429;DHT22;40337;52.978;6.310;2022-09-09T07:26:11;15.60;99.90
54429;DHT22;40337;52.978;6.310;2022-09-09T07:28:37;15.60;99.90
54429;DHT22;40337;52.978;6.310;2022-09-09T07:31:04;15.70;99.90
54429;DHT22;40337;52.978;6.310;2022-09-09T07:33:31;15.70;99.90
54429;DHT22;40337;52.978;6.310;2022-09-09T07:36:16;15.70;99.90
54429;DHT22;40337;52.978;6.310;2022-09-09T07:38:47;15.70;99.90
54429;DHT22;40337;52.978;6.310;2022-09-09T07:41:21;15.70;99.90
54429;DHT22;40337;52.978;6.310;2022-09-09T07:43:48;15.70;99.90
54429;DHT22;40337;52.978;6.310;2022-09-09T07:46:17;15.70;99.90
54429;DHT22;40337;52.978;6.310;2022-09-09T07:48:48;15.70;99.90
54429;DHT22;40337;52.978;6.310;2022-09-09T07:51:20;15.70;99.90
54429;DHT22;40337;52.978;6.310;2022-09-09T07:53:48;15.70;99.90
54429;DHT22;40337;52.978;6.310;2022-09-09T07:56:17;15.70;99.90
54429;DHT22;40337;52.978;6.310;2022-09-09T07:58:46;15.70;99.90
54429;DHT22;40337;52.978;6.310;2022-09-09T08:01:24;15.70;99.90
54429;DHT22;40337;52.978;6.310;2022-09-09T08:03:59;15.80;99.90
54429;DHT22;40337;52.978;6.310;2022-09-09T08:06:28;15.80;99.90
54429;DHT22;40337;52.978;6.310;2022-09-09T08:08:54;15.90;99.90
54429;DHT22;40337;52.978;6.310;2022-09-09T08:11:23;15.90;99.90
54429;DHT22;40337;52.978;6.310;2022-09-09T08:13:50;15.90;99.90
54429;DHT22;40337;52.978;6.310;2022-09-09T08:16:21;16.00;99.90
54429;DHT22;40337;52.978;6.310;2022-09-09T08:18:51;16.10;99.90
54429;DHT22;40337;52.978;6.310;2022-09-09T08:21:19;16.20;99.90
54429;DHT22;40337;52.978;6.310;2022-09-09T08:23:47;16.30;99.90
54429;DHT22;40337;52.978;6.310;2022-09-09T08:26:16;16.40;99.90
54429;DHT22;40337;52.978;6.310;2022-09-09T08:28:43;16.60;99.90
54429;DHT22;40337;52.978;6.310;2022-09-09T08:33:36;16.90;99.90
54429;DHT22;40337;52.978;6.310;2022-09-09T08:36:04;16.90;99.90
54429;DHT22;40337;52.978;6.310;2022-09-09T08:38:30;17.00;99.90
54429;DHT22;40337;52.978;6.310;2022-09-09T08:43:46;17.30;99.90
54429;DHT22;40337;52.978;6.310;2022-09-09T08:49:29;17.40;99.90
54429;DHT22;40337;52.978;6.310;2022-09-09T08:51:56;17.50;99.90
54429;DHT22;40337;52.978;6.310;2022-09-09T08:54:23;17.70;99.90
54429;DHT22;40337;52.978;6.310;2022-09-09T08:56:49;17.80;99.90
54429;DHT22;40337;52.978;6.310;2022-09-09T08:59:17;17.90;99.90
54429;DHT22;40337;52.978;6.310;2022-09-09T09:02:18;17.80;99.90
54429;DHT22;40337;52.978;6.310;2022-09-09T09:05:01;17.90;99.90
54429;DHT22;40337;52.978;6.310;2022-09-09T09:10:37;17.90;99.90
54429;DHT22;40337;52.978;6.310;2022-09-09T09:13:11;18.00;99.90
54429;DHT22;40337;52.978;6.310;2022-09-09T09:15:38;18.30;99.90
54429;DHT22;40337;52.978;6.310;2022-09-09T09:18:10;18.50;99.90
54429;DHT22;40337;52.978;6.310;2022-09-09T09:21:34;18.40;99.90
54429;DHT22;40337;52.978;6.310;2022-09-09T09:23:53;18.20;99.90
54429;DHT22;40337;52.978;6.310;2022-09-09T09:26:23;18.10;99.90
54429;DHT22;40337;52.978;6.310;2022-09-09T09:28:50;17.90;99.90
54429;DHT22;40337;52.978;6.310;2022-09-09T09:31:19;17.90;99.90
54429;DHT22;40337;52.978;6.310;2022-09-09T09:33:47;17.90;99.90
54429;DHT22;40337;52.978;6.310;2022-09-09T09:36:14;17.90;99.90
54429;DHT22;40337;52.978;6.310;2022-09-09T09:39:00;17.90;99.90
54429;DHT22;40337;52.978;6.310;2022-09-09T09:41:41;17.90;99.90
54429;DHT22;40337;52.978;6.310;2022-09-09T09:44:27;17.90;99.90
54429;DHT22;40337;52.978;6.310;2022-09-09T09:47:04;17.90;99.90
54429;DHT22;40337;52.978;6.310;2022-09-09T09:49:30;17.90;99.90
54429;DHT22;40337;52.978;6.310;2022-09-09T09:52:04;17.80;99.90
54429;DHT22;40337;52.978;6.310;2022-09-09T09:54:33;17.80;99.90
54429;DHT22;40337;52.978;6.310;2022-09-09T09:57:12;17.90;99.90
54429;DHT22;40337;52.978;6.310;2022-09-09T09:59:39;18.00;99.90
54429;DHT22;40337;52.978;6.310;2022-09-09T10:02:24;18.20;99.90
54429;DHT22;40337;52.978;6.310;2022-09-09T10:05:05;18.60;99.90
54429;DHT22;40337;52.978;6.310;2022-09-09T10:07:31;18.90;99.90
54429;DHT22;40337;52.978;6.310;2022-09-09T10:09:58;19.00;99.90
54429;DHT22;40337;52.978;6.310;2022-09-09T10:12:45;19.30;99.90
54429;DHT22;40337;52.978;6.310;2022-09-09T10:15:44;19.50;99.90
54429;DHT22;40337;52.978;6.310;2022-09-09T10:18:40;19.50;99.90
54429;DHT22;40337;52.978;6.310;2022-09-09T10:32:21;19.20;99.90
54429;DHT22;40337;52.978;6.310;2022-09-09T10:35:02;19.10;99.90
54429;DHT22;40337;52.978;6.310;2022-09-09T10:38:00;19.20;99.90
54429;DHT22;40337;52.978;6.310;2022-09-09T10:40:33;19.10;99.90
54429;DHT22;40337;52.978;6.310;2022-09-09T10:43:35;19.40;99.90
54429;DHT22;40337;52.978;6.310;2022-09-09T10:52:04;20.10;99.90
54429;DHT22;40337;52.978;6.310;2022-09-09T11:00:17;20.30;99.90
54429;DHT22;40337;52.978;6.310;2022-09-09T11:02:47;20.10;99.90
54429;DHT22;40337;52.978;6.310;2022-09-09T11:05:19;20.00;99.90
54429;DHT22;40337;52.978;6.310;2022-09-09T11:07:59;19.70;99.90
54429;DHT22;40337;52.978;6.310;2022-09-09T11:10:38;19.50;99.90
54429;DHT22;40337;52.978;6.310;2022-09-09T11:13:17;19.30;99.90
54429;DHT22;40337;52.978;6.310;2022-09-09T11:15:49;19.20;99.90
54429;DHT22;40337;52.978;6.310;2022-09-09T11:18:20;19.10;99.90
54429;DHT22;40337;52.978;6.310;2022-09-09T11:20:53;19.00;99.90
54429;DHT22;40337;52.978;6.310;2022-09-09T11:23:27;19.00;99.90
54429;DHT22;40337;52.978;6.310;2022-09-09T11:26:00;19.00;99.90
54429;DHT22;40337;52.978;6.310;2022-09-09T11:28:52;19.00;99.90
54429;DHT22;40337;52.978;6.310;2022-09-09T11:37:07;19.10;99.90
54429;DHT22;40337;52.978;6.310;2022-09-09T11:40:38;19.40;99.90
54429;DHT22;40337;52.978;6.310;2022-09-09T11:42:33;19.30;99.90
54429;DHT22;40337;52.978;6.310;2022-09-09T11:45:09;19.30;99.90
54429;DHT22;40337;52.978;6.310;2022-09-09T11:47:36;19.10;99.90
54429;DHT22;40337;52.978;6.310;2022-09-09T11:52:42;18.60;99.90
54429;DHT22;40337;52.978;6.310;2022-09-09T11:55:31;18.50;99.90
54429;DHT22;40337;52.978;6.310;2022-09-09T11:58:06;18.40;99.90
54429;DHT22;40337;52.978;6.310;2022-09-09T12:00:45;18.50;99.90
54429;DHT22;40337;52.978;6.310;2022-09-09T12:03:49;18.60;99.90
54429;DHT22;40337;52.978;6.310;2022-09-09T12:06:19;18.80;99.90
54429;DHT22;40337;52.978;6.310;2022-09-09T12:08:50;19.10;99.90
54429;DHT22;40337;52.978;6.310;2022-09-09T12:11:26;19.40;99.90
54429;DHT22;40337;52.978;6.310;2022-09-09T12:13:53;19.60;99.90
54429;DHT22;40337;52.978;6.310;2022-09-09T12:16:33;19.80;99.90
54429;DHT22;40337;52.978;6.310;2022-09-09T12:19:20;20.40;99.90
54429;DHT22;40337;52.978;6.310;2022-09-09T12:24:32;21.10;99.90
54429;DHT22;40337;52.978;6.310;2022-09-09T12:27:16;21.20;99.90
54429;DHT22;40337;52.978;6.310;2022-09-09T12:30:08;21.50;99.90
54429;DHT22;40337;52.978;6.310;2022-09-09T12:32:35;21.60;99.90
54429;DHT22;40337;52.978;6.310;2022-09-09T12:35:14;21.70;99.90
54429;DHT22;40337;52.978;6.310;2022-09-09T12:38:04;21.60;99.90
54429;DHT22;40337;52.978;6.310;2022-09-09T12:40:34;21.30;99.90
54429;DHT22;40337;52.978;6.310;2022-09-09T12:43:19;21.10;99.90
54429;DHT22;40337;52.978;6.310;2022-09-09T12:45:46;20.80;99.90
54429;DHT22;40337;52.978;6.310;2022-09-09T12:48:18;20.70;99.90
54429;DHT22;40337;52.978;6.310;2022-09-09T12:50:49;20.50;99.90
54429;DHT22;40337;52.978;6.310;2022-09-09T12:53:24;20.30;99.90
54429;DHT22;40337;52.978;6.310;2022-09-09T12:55:58;20.10;99.90
54429;DHT22;40337;52.978;6.310;2022-09-09T12:58:25;20.00;99.90
54429;DHT22;40337;52.978;6.310;2022-09-09T13:00:55;20.00;99.90
54429;DHT22;40337;52.978;6.310;2022-09-09T13:03:23;20.00;99.90
54429;DHT22;40337;52.978;6.310;2022-09-09T13:05:51;20.00;99.90
54429;DHT22;40337;52.978;6.310;2022-09-09T13:08:18;20.10;99.90
54429;DHT22;40337;52.978;6.310;2022-09-09T13:11:02;20.20;99.90
54429;DHT22;40337;52.978;6.310;2022-09-09T13:13:38;20.60;99.90
54429;DHT22;40337;52.978;6.310;2022-09-09T13:16:06;20.60;99.90
54429;DHT22;40337;52.978;6.310;2022-09-09T13:18:42;20.80;99.90
54429;DHT22;40337;52.978;6.310;2022-09-09T13:21:07;21.20;99.90
54429;DHT22;40337;52.978;6.310;2022-09-09T13:23:35;21.30;99.90
54429;DHT22;40337;52.978;6.310;2022-09-09T13:26:06;21.10;99.90
54429;DHT22;40337;52.978;6.310;2022-09-09T13:28:44;20.80;99.90
54429;DHT22;40337;52.978;6.310;2022-09-09T13:31:22;20.50;99.90
54429;DHT22;40337;52.978;6.310;2022-09-09T13:33:48;20.30;99.90
54429;DHT22;40337;52.978;6.310;2022-09-09T13:36:13;20.10;99.90
54429;DHT22;40337;52.978;6.310;2022-09-09T13:43:55;19.40;99.90
54429;DHT22;40337;52.978;6.310;2022-09-09T13:46:40;19.30;99.90
54429;DHT22;40337;52.978;6.310;2022-09-09T13:51:36;18.80;99.90
54429;DHT22;40337;52.978;6.310;2022-09-09T13:54:06;18.60;99.90
54429;DHT22;40337;52.978;6.310;2022-09-09T13:56:35;18.40;99.90
54429;DHT22;40337;52.978;6.310;2022-09-09T13:59:02;18.30;99.90
54429;DHT22;40337;52.978;6.310;2022-09-09T14:01:28;18.10;99.90
54429;DHT22;40337;52.978;6.310;2022-09-09T14:03:54;18.10;99.90
54429;DHT22;40337;52.978;6.310;2022-09-09T14:06:20;18.10;99.90
54429;DHT22;40337;52.978;6.310;2022-09-09T14:08:48;18.40;99.90
54429;DHT22;40337;52.978;6.310;2022-09-09T14:11:14;18.70;99.90
54429;DHT22;40337;52.978;6.310;2022-09-09T14:13:40;19.10;99.90
54429;DHT22;40337;52.978;6.310;2022-09-09T14:16:06;19.40;99.90
54429;DHT22;40337;52.978;6.310;2022-09-09T14:18:31;19.80;99.90
54429;DHT22;40337;52.978;6.310;2022-09-09T14:20:57;20.00;99.90
54429;DHT22;40337;52.978;6.310;2022-09-09T14:23:24;20.20;99.90
54429;DHT22;40337;52.978;6.310;2022-09-09T14:25:50;20.10;99.90
54429;DHT22;40337;52.978;6.310;2022-09-09T14:28:16;19.70;99.90
54429;DHT22;40337;52.978;6.310;2022-09-09T14:30:43;19.60;99.90
54429;DHT22;40337;52.978;6.310;2022-09-09T14:33:11;19.60;99.90
54429;DHT22;40337;52.978;6.310;2022-09-09T14:35:37;19.80;99.90
54429;DHT22;40337;52.978;6.310;2022-09-09T14:38:04;19.60;99.90
54429;DHT22;40337;52.978;6.310;2022-09-09T14:40:30;19.40;99.90
54429;DHT22;40337;52.978;6.310;2022-09-09T14:42:56;19.30;99.90
54429;DHT22;40337;52.978;6.310;2022-09-09T14:45:23;19.20;99.90
54429;DHT22;40337;52.978;6.310;2022-09-09T14:47:50;19.10;99.90
54429;DHT22;40337;52.978;6.310;2022-09-09T14:50:17;18.90;99.90
54429;DHT22;40337;52.978;6.310;2022-09-09T14:52:43;18.80;99.90
54429;DHT22;40337;52.978;6.310;2022-09-09T14:55:09;18.80;99.90
54429;DHT22;40337;52.978;6.310;2022-09-09T14:57:34;18.70;99.90
54429;DHT22;40337;52.978;6.310;2022-09-09T15:00:02;18.70;99.90
54429;DHT22;40337;52.978;6.310;2022-09-09T15:02:29;18.70;99.90
54429;DHT22;40337;52.978;6.310;2022-09-09T15:04:55;18.60;99.90
54429;DHT22;40337;52.978;6.310;2022-09-09T15:07:23;18.60;99.90
54429;DHT22;40337;52.978;6.310;2022-09-09T15:09:49;18.60;99.90
54429;DHT22;40337;52.978;6.310;2022-09-09T15:12:15;18.70;99.90
54429;DHT22;40337;52.978;6.310;2022-09-09T15:14:44;18.70;99.90
54429;DHT22;40337;52.978;6.310;2022-09-09T15:17:09;18.70;99.90
54429;DHT22;40337;52.978;6.310;2022-09-09T15:19:35;18.70;99.90
54429;DHT22;40337;52.978;6.310;2022-09-09T15:22:02;18.60;99.90
54429;DHT22;40337;52.978;6.310;2022-09-09T15:24:28;18.60;99.90
54429;DHT22;40337;52.978;6.310;2022-09-09T15:26:54;18.40;99.90
54429;DHT22;40337;52.978;6.310;2022-09-09T15:29:19;18.40;99.90
54429;DHT22;40337;52.978;6.310;2022-09-09T15:31:45;18.20;99.90
54429;DHT22;40337;52.978;6.310;2022-09-09T15:34:12;18.20;99.90
54429;DHT22;40337;52.978;6.310;2022-09-09T15:36:45;18.20;99.90
54429;DHT22;40337;52.978;6.310;2022-09-09T15:39:16;18.30;99.90
54429;DHT22;40337;52.978;6.310;2022-09-09T15:41:43;18.30;99.90
54429;DHT22;40337;52.978;6.310;2022-09-09T15:44:11;18.30;99.90
54429;DHT22;40337;52.978;6.310;2022-09-09T15:46:39;18.30;99.90
54429;DHT22;40337;52.978;6.310;2022-09-09T15:51:35;18.30;99.90
54429;DHT22;40337;52.978;6.310;2022-09-09T15:54:00;18.30;99.90
54429;DHT22;40337;52.978;6.310;2022-09-09T15:56:27;18.30;99.90
54429;DHT22;40337;52.978;6.310;2022-09-09T15:58:55;18.20;99.90
54429;DHT22;40337;52.978;6.310;2022-09-09T16:01:20;18.20;99.90
54429;DHT22;40337;52.978;6.310;2022-09-09T16:03:46;18.20;99.90
54429;DHT22;40337;52.978;6.310;2022-09-09T16:06:13;18.10;99.90
54429;DHT22;40337;52.978;6.310;2022-09-09T16:08:41;18.20;99.90
54429;DHT22;40337;52.978;6.310;2022-09-09T16:11:16;18.10;99.90
54429;DHT22;40337;52.978;6.310;2022-09-09T16:13:43;18.10;99.90
54429;DHT22;40337;52.978;6.310;2022-09-09T16:16:13;18.00;99.90
54429;DHT22;40337;52.978;6.310;2022-09-09T16:18:43;18.00;99.90
54429;DHT22;40337;52.978;6.310;2022-09-09T16:21:32;17.90;99.90
54429;DHT22;40337;52.978;6.310;2022-09-09T16:23:59;17.90;99.90
54429;DHT22;40337;52.978;6.310;2022-09-09T16:26:25;17.80;99.90
54429;DHT22;40337;52.978;6.310;2022-09-09T16:28:51;17.70;99.90
54429;DHT22;40337;52.978;6.310;2022-09-09T16:31:21;17.70;99.90
54429;DHT22;40337;52.978;6.310;2022-09-09T16:33:48;17.70;99.90
54429;DHT22;40337;52.978;6.310;2022-09-09T16:36:20;17.60;99.90
54429;DHT22;40337;52.978;6.310;2022-09-09T16:38:46;17.60;99.90
54429;DHT22;40337;52.978;6.310;2022-09-09T16:41:13;17.70;99.90
54429;DHT22;40337;52.978;6.310;2022-09-09T16:43:39;17.70;99.90
54429;DHT22;40337;52.978;6.310;2022-09-09T16:46:17;17.70;99.90
54429;DHT22;40337;52.978;6.310;2022-09-09T16:48:45;17.70;99.90
54429;DHT22;40337;52.978;6.310;2022-09-09T16:51:20;17.70;99.90
54429;DHT22;40337;52.978;6.310;2022-09-09T16:53:46;17.80;99.90
54429;DHT22;40337;52.978;6.310;2022-09-09T16:56:20;17.80;99.90
54429;DHT22;40337;52.978;6.310;2022-09-09T16:58:50;17.80;99.90
54429;DHT22;40337;52.978;6.310;2022-09-09T17:01:16;17.80;99.90
54429;DHT22;40337;52.978;6.310;2022-09-09T17:03:42;17.80;99.90
54429;DHT22;40337;52.978;6.310;2022-09-09T17:06:14;17.80;99.90
54429;DHT22;40337;52.978;6.310;2022-09-09T17:08:40;17.70;99.90
54429;DHT22;40337;52.978;6.310;2022-09-09T17:11:17;17.70;99.90
54429;DHT22;40337;52.978;6.310;2022-09-09T17:13:44;17.60;99.90
54429;DHT22;40337;52.978;6.310;2022-09-09T17:16:11;17.60;99.90
54429;DHT22;40337;52.978;6.310;2022-09-09T17:18:37;17.60;99.90
54429;DHT22;40337;52.978;6.310;2022-09-09T17:21:17;17.50;99.90
54429;DHT22;40337;52.978;6.310;2022-09-09T17:23:43;17.50;99.90
54429;DHT22;40337;52.978;6.310;2022-09-09T17:26:14;17.50;99.90
54429;DHT22;40337;52.978;6.310;2022-09-09T17:28:40;17.50;99.90
54429;DHT22;40337;52.978;6.310;2022-09-09T17:31:09;17.40;99.90
54429;DHT22;40337;52.978;6.310;2022-09-09T17:33:37;17.40;99.90
54429;DHT22;40337;52.978;6.310;2022-09-09T17:38:34;17.40;99.90